createdAt,value
2019-05-23T00:00:24.114Z,15.10
2019-05-23T00:02:55.200Z,14.63
2019-05-23T00:05:25.683Z,19.33
2019-05-23T00:07:58.318Z,14.83
2019-05-23T00:10:29.165Z,13.47
2019-05-23T00:13:01.915Z,15.07
2019-05-23T00:15:35.443Z,15.73
2019-05-23T00:18:06.357Z,14.53
2019-05-23T00:20:35.686Z,23.70
2019-05-23T00:23:05.366Z,13.93
2019-05-23T00:25:34.131Z,15.20
2019-05-23T00:28:05.896Z,15.33
2019-05-23T00:30:44.165Z,18.10
2019-05-23T00:33:16.009Z,17.10
2019-05-23T00:35:45.684Z,17.43
2019-05-23T00:38:14.509Z,16.50
2019-05-23T00:40:43.654Z,14.07
2019-05-23T00:43:13.074Z,14.40
2019-05-23T00:45:43.518Z,23.73
2019-05-23T00:48:13.493Z,28.57
2019-05-23T00:50:44.873Z,18.93
2019-05-23T00:53:16.036Z,17.77
2019-05-23T00:55:45.905Z,15.43
2019-05-23T00:58:15.435Z,19.87
2019-05-23T01:00:45.991Z,21.40
2019-05-23T01:03:16.634Z,19.97
2019-05-23T01:05:46.423Z,20.30
2019-05-23T01:08:16.796Z,20.17
2019-05-23T01:10:45.544Z,22.03
2019-05-23T01:13:15.372Z,26.40
2019-05-23T01:15:45.062Z,20.40
2019-05-23T01:18:15.812Z,18.53
2019-05-23T01:21:01.155Z,18.03
2019-05-23T01:23:32.686Z,24.07
2019-05-23T01:26:11.579Z,17.83
2019-05-23T01:28:41.088Z,19.37
2019-05-23T01:31:11.847Z,15.40
2019-05-23T01:33:42.145Z,21.30
2019-05-23T01:36:10.978Z,28.63
2019-05-23T01:38:41.522Z,23.30
2019-05-23T01:41:17.351Z,19.83
2019-05-23T01:43:46.474Z,21.10
2019-05-23T01:46:16.421Z,20.87
2019-05-23T01:48:46.942Z,19.53
2019-05-23T01:51:16.631Z,17.13
2019-05-23T01:53:47.184Z,16.17
2019-05-23T01:56:17.107Z,13.40
2019-05-23T01:58:46.234Z,22.03
2019-05-23T02:01:15.854Z,25.40
2019-05-23T02:03:45.272Z,29.83
2019-05-23T02:06:14.562Z,23.93
2019-05-23T02:08:43.465Z,16.83
2019-05-23T02:11:14.582Z,19.07
2019-05-23T02:13:43.989Z,21.40
2019-05-23T02:16:12.517Z,22.83
2019-05-23T02:18:45.185Z,18.70
2019-05-23T02:21:15.891Z,16.33
2019-05-23T02:23:45.806Z,19.73
2019-05-23T02:26:16.104Z,22.80
2019-05-23T02:28:45.827Z,16.87
2019-05-23T02:31:15.909Z,17.40
2019-05-23T02:33:45.133Z,19.43
2019-05-23T02:36:14.894Z,14.07
2019-05-23T02:38:54.885Z,15.23
2019-05-23T02:41:32.226Z,15.97
2019-05-23T02:44:03.067Z,14.30
2019-05-23T02:46:38.197Z,16.23
2019-05-23T02:49:08.437Z,15.77
2019-05-23T02:51:38.540Z,12.73
2019-05-23T02:54:13.935Z,17.27
2019-05-23T02:56:44.918Z,14.03
2019-05-23T02:59:37.847Z,20.23
2019-05-23T03:02:31.041Z,13.63
2019-05-23T03:05:00.539Z,16.17
2019-05-23T03:07:32.955Z,16.63
2019-05-23T03:10:05.056Z,15.37
2019-05-23T03:12:36.060Z,19.20
2019-05-23T03:15:08.814Z,17.07
2019-05-23T03:17:39.760Z,15.10
2019-05-23T03:20:10.302Z,16.43
2019-05-23T03:22:50.850Z,17.00
2019-05-23T03:25:39.602Z,15.03
2019-05-23T03:28:10.114Z,16.17
2019-05-23T03:30:40.704Z,15.00
2019-05-23T03:33:11.498Z,14.57
2019-05-23T03:35:59.936Z,16.97
2019-05-23T03:38:29.816Z,12.23
2019-05-23T03:40:58.871Z,17.27
2019-05-23T03:43:28.378Z,18.23
2019-05-23T03:46:14.589Z,18.47
2019-05-23T03:48:44.906Z,20.60
2019-05-23T03:51:13.731Z,20.67
2019-05-23T03:53:47.673Z,17.93
2019-05-23T03:56:16.509Z,23.37
2019-05-23T03:58:46.999Z,23.37
2019-05-23T04:01:20.801Z,19.37
2019-05-23T04:03:55.199Z,16.93
2019-05-23T04:06:24.107Z,17.47
2019-05-23T04:08:53.186Z,20.73
2019-05-23T04:11:22.950Z,17.20
2019-05-23T04:13:54.249Z,16.30
2019-05-23T04:16:30.666Z,17.17
2019-05-23T04:19:00.529Z,21.00
2019-05-23T04:21:30.560Z,16.07
2019-05-23T04:23:59.330Z,19.27
2019-05-23T04:26:30.408Z,21.13
2019-05-23T04:28:59.574Z,16.03
2019-05-23T04:31:37.389Z,20.23
2019-05-23T04:34:08.802Z,22.93
2019-05-23T04:36:37.555Z,25.03
2019-05-23T04:39:11.889Z,23.40
2019-05-23T04:41:42.729Z,24.70
2019-05-23T04:44:12.318Z,21.57
2019-05-23T04:46:45.434Z,22.57
2019-05-23T04:49:14.489Z,17.57
2019-05-23T04:51:43.265Z,19.40
2019-05-23T04:54:12.361Z,19.17
2019-05-23T04:56:41.452Z,20.97
2019-05-23T04:59:10.344Z,16.77
2019-05-23T05:01:39.093Z,17.30
2019-05-23T05:04:08.962Z,17.50
2019-05-23T05:06:39.414Z,20.90
2019-05-23T05:09:10.208Z,18.73
2019-05-23T05:11:41.218Z,21.20
2019-05-23T05:14:10.452Z,17.10
2019-05-23T05:16:39.197Z,28.00
2019-05-23T05:19:08.201Z,18.83
2019-05-23T05:21:38.180Z,16.63
2019-05-23T05:24:06.893Z,22.23
2019-05-23T05:26:35.546Z,20.47
2019-05-23T05:29:10.581Z,18.20
2019-05-23T05:31:40.515Z,14.10
2019-05-23T05:34:09.289Z,17.97
2019-05-23T05:36:37.992Z,16.97
2019-05-23T05:39:08.240Z,15.47
2019-05-23T05:41:39.489Z,14.60
2019-05-23T05:44:11.629Z,16.30
2019-05-23T05:46:39.352Z,22.90
2019-05-23T05:49:09.972Z,17.83
2019-05-23T05:51:38.803Z,15.23
2019-05-23T05:54:11.224Z,12.87
2019-05-23T05:56:39.789Z,17.13
2019-05-23T05:59:08.721Z,14.93
2019-05-23T06:01:37.662Z,15.50
2019-05-23T06:04:06.574Z,16.30
2019-05-23T06:06:44.703Z,19.10
2019-05-23T06:09:25.858Z,19.23
2019-05-23T06:11:54.583Z,20.93
2019-05-23T06:14:25.058Z,19.93
2019-05-23T06:16:55.761Z,19.67
2019-05-23T06:19:24.946Z,21.33
2019-05-23T06:21:54.105Z,15.47
2019-05-23T06:24:41.984Z,15.50
2019-05-23T06:26:58.106Z,14.20
2019-05-23T06:29:27.363Z,14.20
2019-05-23T06:31:56.125Z,11.47
2019-05-23T06:34:26.033Z,14.80
2019-05-23T06:36:55.457Z,10.70
2019-05-23T06:39:24.188Z,12.40
2019-05-23T06:41:53.111Z,11.03
2019-05-23T06:44:22.403Z,7.50
2019-05-23T06:46:51.606Z,9.17
2019-05-23T06:49:20.672Z,9.93
2019-05-23T06:51:49.500Z,10.37
2019-05-23T06:54:19.559Z,9.87
2019-05-23T06:56:48.435Z,15.60
2019-05-23T06:59:17.460Z,10.33
2019-05-23T07:01:46.294Z,11.40
2019-05-23T07:04:16.025Z,7.27
2019-05-23T07:06:45.596Z,11.93
2019-05-23T07:09:17.127Z,6.23
2019-05-23T07:11:46.293Z,9.80
2019-05-23T07:14:15.663Z,6.83
2019-05-23T07:16:50.266Z,6.60
2019-05-23T07:19:18.462Z,6.83
2019-05-23T07:21:53.855Z,9.33
2019-05-23T07:24:31.830Z,10.50
2019-05-23T07:27:00.805Z,8.57
2019-05-23T07:29:29.642Z,11.57
2019-05-23T07:31:58.763Z,7.70
2019-05-23T07:34:27.759Z,12.17
2019-05-23T07:36:57.382Z,8.40
2019-05-23T07:39:28.103Z,11.47
2019-05-23T07:41:57.826Z,10.83
2019-05-23T07:44:28.582Z,9.40
2019-05-23T07:46:58.106Z,11.30
2019-05-23T07:49:27.967Z,6.57
2019-05-23T07:51:57.100Z,7.67
2019-05-23T07:54:30.105Z,15.27
2019-05-23T07:57:03.961Z,12.13
2019-05-23T07:59:32.904Z,10.10
2019-05-23T08:02:15.024Z,5.73
2019-05-23T08:04:44.193Z,8.33
2019-05-23T08:07:14.485Z,10.37
2019-05-23T08:09:43.774Z,8.33
2019-05-23T08:12:13.290Z,7.47
2019-05-23T08:14:43.539Z,13.47
2019-05-23T08:17:12.426Z,7.63
2019-05-23T08:19:49.538Z,9.07
2019-05-23T08:22:11.961Z,9.90
2019-05-23T08:24:42.087Z,8.83
2019-05-23T08:27:12.400Z,10.83
2019-05-23T08:29:41.302Z,9.73
2019-05-23T08:32:11.707Z,11.50
2019-05-23T08:34:42.687Z,8.90
2019-05-23T08:37:11.532Z,10.57
2019-05-23T08:39:40.867Z,7.97
2019-05-23T08:42:10.948Z,7.40
2019-05-23T08:44:40.437Z,6.30
2019-05-23T08:47:11.228Z,7.67
2019-05-23T08:49:40.172Z,5.90
2019-05-23T08:52:08.791Z,8.30
2019-05-23T08:54:38.654Z,5.67
2019-05-23T08:57:08.767Z,9.23
2019-05-23T08:59:42.800Z,7.60
2019-05-23T09:02:14.326Z,5.97
2019-05-23T09:05:03.342Z,7.10
2019-05-23T09:07:18.225Z,8.73
2019-05-23T09:09:48.986Z,11.77
2019-05-23T09:12:17.502Z,9.00
2019-05-23T09:14:46.063Z,9.40
2019-05-23T09:17:14.599Z,11.17
2019-05-23T09:19:43.194Z,15.30
2019-05-23T09:22:11.800Z,13.30
2019-05-23T09:24:40.479Z,17.03
2019-05-23T09:27:10.389Z,12.37
2019-05-23T09:29:39.785Z,14.67
2019-05-23T09:32:09.732Z,14.93
2019-05-23T09:34:38.736Z,10.83
2019-05-23T09:37:09.573Z,12.63
2019-05-23T09:39:39.915Z,12.30
2019-05-23T09:42:12.000Z,10.30
2019-05-23T09:44:39.414Z,10.03
2019-05-23T09:47:08.061Z,12.77
2019-05-23T09:49:37.407Z,10.10
2019-05-23T09:52:08.004Z,13.23
2019-05-23T09:54:37.656Z,11.07
2019-05-23T09:57:07.215Z,13.60
2019-05-23T09:59:35.903Z,9.23
2019-05-23T10:02:07.363Z,9.93
2019-05-23T10:04:37.047Z,9.27
2019-05-23T10:07:05.659Z,7.83
2019-05-23T10:09:34.496Z,8.70
2019-05-23T10:12:06.236Z,10.87
2019-05-23T10:14:36.660Z,8.60
2019-05-23T10:17:05.486Z,11.37
2019-05-23T10:19:34.089Z,12.33
2019-05-23T10:22:05.999Z,14.63
2019-05-23T10:24:34.954Z,11.77
2019-05-23T10:27:05.849Z,12.37
2019-05-23T10:29:34.786Z,14.23
2019-05-23T10:32:06.504Z,11.27
2019-05-23T10:34:35.572Z,8.53
2019-05-23T10:37:05.757Z,12.87
2019-05-23T10:39:35.189Z,14.90
2019-05-23T10:42:06.443Z,20.07
2019-05-23T10:44:35.380Z,21.13
2019-05-23T10:47:05.280Z,23.50
2019-05-23T10:49:33.795Z,27.23
2019-05-23T10:52:03.475Z,21.73
2019-05-23T10:54:32.092Z,24.23
2019-05-23T10:57:00.687Z,27.80
2019-05-23T10:59:29.374Z,26.50
2019-05-23T11:01:57.912Z,25.30
2019-05-23T11:04:27.072Z,22.53
2019-05-23T11:06:56.610Z,25.50
2019-05-23T11:09:37.337Z,24.63
2019-05-23T11:11:56.493Z,25.07
2019-05-23T11:14:25.299Z,21.90
2019-05-23T11:16:54.631Z,23.70
2019-05-23T11:19:23.571Z,22.33
2019-05-23T11:21:53.672Z,24.10
2019-05-23T11:24:22.411Z,18.90
2019-05-23T11:26:51.134Z,18.20
2019-05-23T11:29:20.121Z,18.17
2019-05-23T11:31:49.584Z,15.83
2019-05-23T11:34:18.959Z,14.43
2019-05-23T11:36:47.958Z,10.97
2019-05-23T11:39:17.252Z,10.73
2019-05-23T11:41:46.839Z,15.70
2019-05-23T11:44:16.243Z,13.80
2019-05-23T11:46:46.255Z,13.47
2019-05-23T11:49:15.101Z,13.53
2019-05-23T11:51:43.647Z,16.30
2019-05-23T11:54:12.385Z,19.87
2019-05-23T11:56:42.698Z,14.70
2019-05-23T11:59:11.334Z,14.87
2019-05-23T12:01:41.982Z,15.33
2019-05-23T12:04:12.501Z,15.97
2019-05-23T12:06:54.252Z,20.60
2019-05-23T12:09:15.430Z,16.90
2019-05-23T12:11:44.246Z,21.17
2019-05-23T12:14:12.998Z,23.83
2019-05-23T12:16:42.317Z,16.67
2019-05-23T12:19:11.635Z,15.57
2019-05-23T12:21:40.242Z,20.17
2019-05-23T12:24:09.143Z,20.33
2019-05-23T12:26:37.719Z,24.07
2019-05-23T12:29:06.649Z,24.50
2019-05-23T12:31:35.573Z,23.53
2019-05-23T12:34:04.469Z,35.47
2019-05-23T12:36:33.424Z,40.93
2019-05-23T12:39:04.224Z,48.33
2019-05-23T12:41:33.313Z,45.13
2019-05-23T12:44:03.024Z,52.47
2019-05-23T12:46:32.132Z,55.17
2019-05-23T12:49:08.638Z,54.30
2019-05-23T12:51:41.804Z,54.73
2019-05-23T12:54:10.759Z,51.20
2019-05-23T12:56:40.126Z,42.93
2019-05-23T12:59:09.658Z,47.07
2019-05-23T13:01:40.916Z,44.93
2019-05-23T13:04:11.167Z,46.37
2019-05-23T13:06:40.672Z,47.73
2019-05-23T13:09:10.189Z,47.33
2019-05-23T13:11:39.739Z,46.87
2019-05-23T13:14:09.501Z,46.57
2019-05-23T13:16:38.740Z,46.43
2019-05-23T13:19:09.887Z,50.07
2019-05-23T13:21:38.881Z,57.67
2019-05-23T13:24:08.106Z,84.00
2019-05-23T13:26:37.074Z,76.37
2019-05-23T13:29:05.628Z,64.97
2019-05-23T13:31:34.166Z,69.33
2019-05-23T13:34:03.268Z,67.87
2019-05-23T13:36:31.850Z,84.97
2019-05-23T13:39:00.772Z,80.23
2019-05-23T13:41:29.770Z,74.60
2019-05-23T13:43:58.665Z,73.30
2019-05-23T13:46:27.546Z,64.43
2019-05-23T13:48:56.265Z,70.00
2019-05-23T13:51:24.887Z,78.93
2019-05-23T13:53:55.603Z,68.20
2019-05-23T13:56:24.482Z,75.50
2019-05-23T13:58:53.392Z,72.37
2019-05-23T14:01:22.412Z,66.97
2019-05-23T14:03:51.036Z,66.50
2019-05-23T14:06:20.267Z,60.23
2019-05-23T14:08:48.813Z,64.43
2019-05-23T14:11:17.390Z,65.90
2019-05-23T14:13:46.702Z,65.53
2019-05-23T14:16:15.906Z,66.37
2019-05-23T14:18:44.686Z,64.10
2019-05-23T14:21:13.252Z,64.40
2019-05-23T14:23:42.025Z,67.57
2019-05-23T14:26:11.793Z,62.90
2019-05-23T14:28:43.755Z,62.07
2019-05-23T14:31:17.727Z,68.80
2019-05-23T14:34:00.244Z,68.57
2019-05-23T14:36:37.565Z,69.50
2019-05-23T14:39:10.006Z,81.77
2019-05-23T14:41:45.334Z,96.40
2019-05-23T14:44:11.622Z,76.27
2019-05-23T14:46:47.711Z,76.37
2019-05-23T14:49:18.420Z,74.77
2019-05-23T14:51:51.328Z,63.77
2019-05-23T14:54:30.765Z,60.53
2019-05-23T14:56:59.587Z,63.33
2019-05-23T14:59:28.521Z,61.73
2019-05-23T15:01:58.882Z,61.47
2019-05-23T15:04:28.381Z,63.50
2019-05-23T15:06:56.933Z,63.93
2019-05-23T15:09:27.168Z,56.57
2019-05-23T15:11:56.101Z,56.07
2019-05-23T15:14:24.915Z,55.97
2019-05-23T15:16:53.616Z,54.40
2019-05-23T15:19:40.034Z,49.07
2019-05-23T15:21:52.692Z,48.03
2019-05-23T15:24:22.522Z,54.37
2019-05-23T15:26:51.968Z,47.63
2019-05-23T15:29:20.701Z,54.27
2019-05-23T15:32:01.846Z,47.97
2019-05-23T15:34:19.911Z,52.97
2019-05-23T15:36:49.834Z,50.43
2019-05-23T15:39:20.226Z,48.03
2019-05-23T15:41:49.179Z,47.10
2019-05-23T15:44:26.955Z,50.43
2019-05-23T15:46:49.363Z,50.07
2019-05-23T15:49:17.902Z,46.07
2019-05-23T15:51:48.312Z,42.30
2019-05-23T15:54:21.738Z,42.50
2019-05-23T15:56:52.081Z,42.80
2019-05-23T15:59:22.469Z,47.10
2019-05-23T16:02:05.213Z,44.83
2019-05-23T16:04:35.473Z,40.23
2019-05-23T16:07:07.023Z,45.63
2019-05-23T16:09:35.983Z,46.07
2019-05-23T16:12:07.491Z,48.57
2019-05-23T16:14:37.412Z,51.77
2019-05-23T16:17:07.369Z,46.73
2019-05-23T16:19:41.760Z,45.57
2019-05-23T16:22:11.463Z,41.87
2019-05-23T16:24:41.197Z,42.73
2019-05-23T16:27:10.317Z,42.07
2019-05-23T16:29:40.716Z,47.40
2019-05-23T16:32:09.934Z,42.60
2019-05-23T16:34:39.323Z,45.10
2019-05-23T16:37:09.621Z,46.73
2019-05-23T16:39:47.349Z,49.17
2019-05-23T16:42:10.108Z,54.50
2019-05-23T16:44:39.075Z,48.23
2019-05-23T16:47:09.124Z,48.47
2019-05-23T16:49:38.079Z,49.83
2019-05-23T16:52:07.084Z,52.40
2019-05-23T16:54:37.929Z,53.03
2019-05-23T16:57:08.173Z,50.53
2019-05-23T16:59:38.280Z,57.50
2019-05-23T17:02:20.787Z,57.83
2019-05-23T17:05:08.385Z,58.53
2019-05-23T17:07:39.631Z,52.20
2019-05-23T17:10:10.092Z,52.00
2019-05-23T17:12:40.443Z,51.80
2019-05-23T17:15:15.964Z,51.73
2019-05-23T17:18:05.178Z,50.20
2019-05-23T17:20:53.910Z,48.40
2019-05-23T17:23:42.481Z,45.50
2019-05-23T17:26:27.994Z,41.90
2019-05-23T17:28:59.023Z,46.37
2019-05-23T17:31:40.651Z,40.93
2019-05-23T17:34:09.835Z,42.17
2019-05-23T17:36:38.679Z,44.03
2019-05-23T17:39:10.062Z,41.70
2019-05-23T17:41:38.535Z,40.13
2019-05-23T17:44:07.420Z,43.57
2019-05-23T17:46:37.312Z,39.03
2019-05-23T17:49:06.389Z,42.63
2019-05-23T17:51:34.850Z,43.93
2019-05-23T17:54:04.100Z,43.03
2019-05-23T17:56:32.722Z,41.33
2019-05-23T17:59:01.488Z,40.63
2019-05-23T18:01:32.732Z,40.27
2019-05-23T18:04:04.604Z,36.43
2019-05-23T18:06:33.360Z,41.03
2019-05-23T18:09:02.263Z,37.97
2019-05-23T18:11:32.135Z,38.50
2019-05-23T18:14:01.363Z,43.73
2019-05-23T18:16:30.414Z,39.37
2019-05-23T18:19:00.273Z,47.20
2019-05-23T18:21:29.534Z,45.97
2019-05-23T18:23:58.428Z,35.73
2019-05-23T18:26:27.252Z,42.73
2019-05-23T18:28:56.436Z,39.07
2019-05-23T18:31:26.881Z,40.57
2019-05-23T18:33:55.752Z,40.03
2019-05-23T18:36:25.336Z,45.47
2019-05-23T18:38:54.882Z,40.77
2019-05-23T18:41:24.785Z,48.70
2019-05-23T18:43:54.646Z,43.23
2019-05-23T18:46:43.237Z,40.77
2019-05-23T18:49:12.941Z,46.70
2019-05-23T18:51:42.522Z,51.23
2019-05-23T18:54:11.170Z,44.10
2019-05-23T18:56:40.041Z,46.20
2019-05-23T18:59:10.092Z,44.07
2019-05-23T19:01:40.212Z,46.83
2019-05-23T19:04:09.080Z,44.13
2019-05-23T19:06:38.057Z,45.03
2019-05-23T19:09:11.162Z,44.17
2019-05-23T19:11:41.315Z,54.03
2019-05-23T19:14:10.191Z,53.10
2019-05-23T19:16:39.744Z,53.07
2019-05-23T19:19:08.704Z,45.23
2019-05-23T19:21:37.731Z,48.73
2019-05-23T19:24:07.652Z,51.77
2019-05-23T19:26:36.619Z,50.77
2019-05-23T19:29:06.717Z,48.70
2019-05-23T19:31:36.591Z,55.67
2019-05-23T19:34:05.533Z,48.43
2019-05-23T19:36:34.308Z,47.97
2019-05-23T19:39:03.178Z,49.73
2019-05-23T19:41:37.570Z,45.30
2019-05-23T19:44:04.982Z,47.70
2019-05-23T19:46:33.569Z,52.70
2019-05-23T19:49:03.938Z,50.20
2019-05-23T19:51:32.987Z,47.60
2019-05-23T19:54:01.947Z,47.30
2019-05-23T19:56:32.428Z,48.47
2019-05-23T19:59:01.137Z,46.47
2019-05-23T20:01:32.403Z,48.67
2019-05-23T20:04:02.443Z,49.90
2019-05-23T20:06:30.964Z,47.63
2019-05-23T20:09:00.815Z,52.97
2019-05-23T20:11:29.727Z,52.17
2019-05-23T20:13:59.585Z,55.43
2019-05-23T20:16:28.477Z,53.13
2019-05-23T20:18:56.952Z,54.23
2019-05-23T20:21:25.541Z,49.17
2019-05-23T20:23:54.344Z,51.13
2019-05-23T20:26:23.274Z,47.60
2019-05-23T20:28:52.873Z,63.00
2019-05-23T20:31:21.778Z,47.83
2019-05-23T20:33:51.717Z,49.63
2019-05-23T20:36:20.867Z,45.03
2019-05-23T20:38:50.061Z,41.33
2019-05-23T20:41:22.676Z,45.73
2019-05-23T20:43:51.150Z,36.93
2019-05-23T20:46:20.000Z,41.80
2019-05-23T20:48:49.161Z,33.13
2019-05-23T20:51:17.699Z,37.20
2019-05-23T20:53:46.597Z,34.13
2019-05-23T20:56:15.431Z,35.53
2019-05-23T20:58:43.967Z,37.40
2019-05-23T21:01:17.650Z,32.03
2019-05-23T21:03:47.203Z,35.73
2019-05-23T21:06:15.932Z,36.03
2019-05-23T21:08:44.696Z,31.23
2019-05-23T21:11:14.512Z,40.97
2019-05-23T21:13:43.122Z,37.00
2019-05-23T21:16:11.915Z,33.70
2019-05-23T21:18:40.552Z,34.73
2019-05-23T21:21:10.342Z,35.77
2019-05-23T21:23:39.135Z,42.03
2019-05-23T21:26:07.822Z,38.23
2019-05-23T21:28:36.444Z,42.67
2019-05-23T21:31:07.488Z,40.17
2019-05-23T21:33:36.283Z,40.13
2019-05-23T21:36:05.470Z,40.17
2019-05-23T21:38:35.928Z,44.63
2019-05-23T21:41:04.470Z,41.73
2019-05-23T21:43:36.443Z,43.83
2019-05-23T21:46:05.366Z,39.30
2019-05-23T21:48:34.228Z,37.20
2019-05-23T21:51:03.945Z,40.57
2019-05-23T21:53:32.464Z,31.77
2019-05-23T21:56:01.361Z,40.13
2019-05-23T21:58:30.121Z,37.77
2019-05-23T22:01:06.232Z,32.63
2019-05-23T22:03:43.400Z,36.13
2019-05-23T22:06:14.996Z,36.13
2019-05-23T22:08:44.401Z,30.70
2019-05-23T22:11:13.370Z,34.13
2019-05-23T22:13:44.368Z,35.30
2019-05-23T22:16:15.621Z,35.43
2019-05-23T22:18:44.473Z,35.43
2019-05-23T22:21:13.600Z,32.93
2019-05-23T22:23:44.449Z,33.43
2019-05-23T22:26:14.320Z,31.87
2019-05-23T22:28:43.465Z,35.20
2019-05-23T22:31:12.406Z,33.27
2019-05-23T22:33:58.914Z,29.07
2019-05-23T22:36:28.278Z,29.10
2019-05-23T22:38:57.407Z,29.13
2019-05-23T22:41:26.234Z,32.93
2019-05-23T22:43:55.187Z,33.10
2019-05-23T22:46:25.001Z,30.53
2019-05-23T22:49:00.096Z,36.47
2019-05-23T22:51:29.907Z,32.17
2019-05-23T22:53:59.374Z,30.37
2019-05-23T22:56:28.090Z,30.73
2019-05-23T22:58:57.138Z,29.63
2019-05-23T23:01:27.328Z,31.10
2019-05-23T23:04:00.826Z,39.70
2019-05-23T23:06:29.505Z,28.07
2019-05-23T23:08:58.193Z,31.47
2019-05-23T23:11:28.079Z,28.40
2019-05-23T23:13:57.135Z,28.33
2019-05-23T23:16:25.747Z,27.53
2019-05-23T23:18:54.939Z,32.83
2019-05-23T23:21:23.522Z,30.93
2019-05-23T23:23:52.221Z,32.40
2019-05-23T23:26:20.983Z,24.73
2019-05-23T23:28:49.585Z,27.10
2019-05-23T23:31:18.357Z,29.17
2019-05-23T23:33:47.057Z,23.87
2019-05-23T23:36:16.578Z,26.57
2019-05-23T23:38:45.278Z,25.77
2019-05-23T23:41:13.808Z,26.33
2019-05-23T23:43:58.048Z,25.73
2019-05-23T23:46:31.571Z,21.47
2019-05-23T23:49:20.595Z,23.97
2019-05-23T23:52:07.025Z,19.67
2019-05-23T23:54:53.438Z,21.93
2019-05-23T23:57:40.601Z,24.90
